MREC weather

El Carmen de Siquirres Airport
Siquirres, Limon, Costa Rica

Public forecast

Using degrees Celsius for public forecast. Weather courtesy of forecast.io.

Closest aviation weather report (METAR) to El Carmen de Siquirres Airport

Closest report is Limon International Airport, 30.4 nm (56.3 km) ESE. Retrieved 2019/10/15 20:00 UTC (14 minutes ago):

MRLM 152000Z 11005KT CAVOK 28/23 A2986

Closest aviation forecast (TAF) to El Carmen de Siquirres Airport

Closest forecast is Limon International Airport, 30.4 nm (56.3 km) ESE. Retrieved 2019/10/15 18:03 UTC (2 hours ago):

TAF MRLM 151700Z 1518/1618 23004KT 9999 FEW020 SCT140 TX30/1519Z TN22/1612Z TEMPO 1518/1523 10005KT DZ SCT020 BECMG 1615/1617 07005KT